This is the latest recevied weather packets stored in our database for station/object F6BIJ-13. If no packets are shown the sender has not sent any weather packets the latest 10 day(s).
| Time | Temp. | Humidity | Pressure | Rain* | Wind** | Luminosity | Snow |
|---|---|---|---|---|---|---|---|
| 1788463476 | 22.22° C | 53% | 1022 hPa | 0 mm | - | - | - |
| 1788449437 | 28.33° C | 35% | 1022 hPa | 0 mm | - | - | - |
| 1788449076 | 28.33° C | 34% | 1022 hPa | 0 mm | - | - | - |
| 1788448717 | 27.78° C | 33% | 1022 hPa | 0 mm | - | - | - |
| 1788448357 | 27.78° C | 35% | 1022 hPa | 0 mm | - | - | - |
| 1788448002 | 28.33° C | 34% | 1022 hPa | 0 mm | - | - | - |
| 1788447637 | 28.33° C | 34% | 1022 hPa | 0 mm | - | - | - |
| 1788446197 | 28.33° C | 36% | 1022 hPa | 0 mm | - | - | - |
| 1788445837 | 28.89° C | 35% | 1022 hPa | 0 mm | - | - | - |
| 1788445116 | 28.33° C | 35% | 1022 hPa | 0 mm | - | - | - |
| 1788444037 | 28.89° C | 35% | 1022 hPa | 0 mm | - | - | - |
| 1788443676 | 28.89° C | 37% | 1022 hPa | 0 mm | - | - | - |
| 1788442597 | 29.44° C | 35% | 1022 hPa | 0 mm | - | - | - |
| 1788442236 | 28.89° C | 36% | 1022 hPa | 0 mm | - | - | - |
| 1788441876 | 30° C | 36% | 1022 hPa | 0 mm | - | - | - |
| 1788441516 | 29.44° C | 38% | 1022 hPa | 0 mm | - | - | - |
| 1788441157 | 29.44° C | 35% | 1022 hPa | 0 mm | - | - | - |
| 1788440437 | 29.44° C | 37% | 1023 hPa | 0 mm | - | - | - |
| 1788438997 | 29.44° C | 40% | 1023 hPa | 0 mm | - | - | - |
| 1788438637 | 28.33° C | 40% | 1023 hPa | 0 mm | - | - | - |
| 1788438276 | 28.33° C | 42% | 1023 hPa | 0 mm | - | - | - |
| 1788437916 | 28.33° C | 40% | 1023 hPa | 0 mm | - | - | - |
| 1788437197 | 28.33° C | 42% | 1023 hPa | 0 mm | - | - | - |
| 1788436477 | 28.33° C | 40% | 1023 hPa | 0 mm | - | - | - |
| 1788435397 | 27.78° C | 40% | 1023 hPa | 0 mm | - | - | - |
* Rain latest 24 hours (hover to see other rain measurements)
** Current wind speed in m/s (hover to see current wind gust speed)